Time;durP1;ratioP1;P1;durP2;ratioP2;P2;SDS_P1;SDS_P2;PMS_P1;PMS_P2;Temp;Humidity;BMP_temperature;BMP_pressure;BME280_temperature;BME280_humidity;BME280_pressure;Samples;Min_cycle;Max_cycle;Signal;HPM_P1;HPM_P2
2021/10/16 00:01:52;;;;;;;9.17;7.33;;;;;;;11.48;78.17;100809.19;4858241;29;20433;-76
2021/10/16 00:04:18;;;;;;;11.33;8.17;;;;;;;11.49;78.46;100816.28;4855525;29;20486;-75
2021/10/16 00:06:43;;;;;;;10.80;7.67;;;;;;;11.48;78.36;100820.03;4858140;29;20446;-76
2021/10/16 00:09:08;;;;;;;9.97;7.17;;;;;;;11.48;78.63;100819.22;4841355;29;20477;-76
2021/10/16 00:11:33;;;;;;;9.73;8.23;;;;;;;11.47;78.62;100818.38;4842340;29;20434;-75
2021/10/16 00:13:59;;;;;;;8.67;7.77;;;;;;;11.47;78.69;100818.38;4858121;29;20427;-75
2021/10/16 00:16:24;;;;;;;8.47;7.57;;;;;;;11.48;78.65;100821.94;4858613;29;20817;-76
2021/10/16 00:18:50;;;;;;;8.83;7.60;;;;;;;11.48;78.37;100820.03;4858216;29;20422;-75
2021/10/16 00:21:15;;;;;;;10.10;7.47;;;;;;;11.50;78.50;100822.50;4843239;29;20410;-75
2021/10/16 00:23:40;;;;;;;8.50;7.30;;;;;;;11.49;78.63;100821.69;4859093;29;20501;-76
2021/10/16 00:26:05;;;;;;;8.00;6.70;;;;;;;11.47;78.63;100812.94;4858140;29;20432;-75
2021/10/16 00:28:31;;;;;;;8.23;6.77;;;;;;;11.48;78.30;100822.75;4858187;29;20425;-75
2021/10/16 00:30:56;;;;;;;7.23;6.53;;;;;;;11.45;78.52;100812.38;4858484;29;20437;-75
2021/10/16 00:33:21;;;;;;;7.00;6.30;;;;;;;11.45;78.71;100818.63;4858535;29;20453;-75
2021/10/16 00:35:46;;;;;;;7.30;6.60;;;;;;;11.45;78.72;100805.06;4858171;29;20777;-75
2021/10/16 00:38:12;;;;;;;7.20;6.50;;;;;;;11.46;78.78;100808.59;4841551;29;20499;-77
2021/10/16 00:40:37;;;;;;;9.53;6.83;;;;;;;11.45;78.72;100802.34;4856712;29;20432;-75
2021/10/16 00:43:02;;;;;;;7.33;6.63;;;;;;;11.45;78.53;100799.66;4841702;29;20446;-75
2021/10/16 00:45:28;;;;;;;8.63;6.80;;;;;;;11.46;78.51;100801.28;4857968;29;20517;-75
2021/10/16 00:47:54;;;;;;;7.07;6.55;;;;;;;11.44;78.62;100808.84;4858435;29;20778;-75
2021/10/16 00:50:22;;;;;;;8.80;6.40;;;;;;;11.45;78.53;100801.53;4858137;29;20843;-75
2021/10/16 00:52:49;;;;;;;7.57;6.60;;;;;;;11.44;78.29;100808.00;4859143;29;20484;-76
2021/10/16 00:55:16;;;;;;;7.55;6.68;;;;;;;11.45;78.39;100801.53;4856295;29;20426;-76
2021/10/16 00:57:42;;;;;;;8.77;6.43;;;;;;;11.44;78.41;100802.59;4842744;29;20937;-75
2021/10/16 01:00:10;;;;;;;7.10;6.37;;;;;;;11.43;78.72;100807.19;4857340;29;20462;-75
2021/10/16 01:02:35;;;;;;;7.57;6.78;;;;;;;11.44;78.66;100808.00;4842378;29;20421;-75
2021/10/16 01:05:01;;;;;;;6.77;6.13;;;;;;;11.42;78.70;100797.41;4859555;29;20407;-76
2021/10/16 01:07:28;;;;;;;6.60;5.90;;;;;;;11.40;78.67;100796.81;4859248;29;20493;-76
2021/10/16 01:09:54;;;;;;;7.28;6.25;;;;;;;11.39;78.73;100800.59;4842775;29;20521;-75
2021/10/16 01:12:20;;;;;;;8.13;6.57;;;;;;;11.39;78.74;100802.50;4842901;29;20497;-75
2021/10/16 01:14:51;;;;;;;8.90;6.38;;;;;;;11.38;78.86;100800.84;4858164;29;20452;-75
2021/10/16 01:17:20;;;;;;;7.45;6.50;;;;;;;11.38;78.81;100804.38;4855487;29;20478;-76
2021/10/16 01:19:48;;;;;;;10.20;6.63;;;;;;;11.38;78.95;100806.28;4857019;29;20489;-75
2021/10/16 01:22:14;;;;;;;9.93;6.68;;;;;;;11.38;79.33;100803.56;4857589;29;20442;-76
2021/10/16 01:24:40;;;;;;;6.85;6.25;;;;;;;11.39;79.19;100797.06;4857402;29;20509;-75
2021/10/16 01:27:07;;;;;;;6.93;6.20;;;;;;;11.39;79.25;100792.44;4857317;29;21069;-75
2021/10/16 01:29:35;;;;;;;7.88;6.75;;;;;;;11.40;78.94;100796.81;4857511;29;20425;-75
2021/10/16 01:32:02;;;;;;;8.23;7.43;;;;;;;11.40;79.14;100791.38;4857321;29;20430;-75
2021/10/16 01:34:28;;;;;;;7.88;7.07;;;;;;;11.39;79.24;100792.44;4840652;29;20435;-76
2021/10/16 01:36:53;;;;;;;8.77;6.68;;;;;;;11.39;79.29;100792.44;4857612;29;20414;-75
2021/10/16 01:39:20;;;;;;;9.47;8.10;;;;;;;11.38;79.58;100795.41;4840888;29;20418;-76
2021/10/16 01:41:45;;;;;;;7.78;6.97;;;;;;;11.40;79.28;100790.56;4857195;29;20433;-75
2021/10/16 01:44:12;;;;;;;8.90;8.00;;;;;;;11.42;79.45;100794.69;4857001;29;20429;-76
2021/10/16 01:46:38;;;;;;;9.00;8.10;;;;;;;11.44;79.48;100786.31;4855861;29;20791;-75
2021/10/16 01:49:11;;;;;;;11.85;8.93;;;;;;;11.45;79.35;100786.06;4857189;29;20414;-76
2021/10/16 01:51:38;;;;;;;10.68;8.00;;;;;;;11.46;79.63;100779.56;4857162;29;20431;-75
2021/10/16 01:54:04;;;;;;;10.65;8.60;;;;;;;11.46;79.30;100784.16;4840372;29;20505;-75
2021/10/16 01:56:30;;;;;;;9.27;8.27;;;;;;;11.46;79.47;100774.13;4840699;29;20980;-75
2021/10/16 01:58:55;;;;;;;10.30;8.82;;;;;;;11.46;79.56;100778.72;4857398;29;20786;-76
2021/10/16 02:01:20;;;;;;;10.37;9.27;;;;;;;11.45;79.34;100780.66;4839593;29;20422;-75
2021/10/16 02:03:45;;;;;;;10.20;9.17;;;;;;;11.45;79.43;100785.25;4857325;29;20902;-76
2021/10/16 02:06:11;;;;;;;14.13;10.17;;;;;;;11.45;79.47;100788.78;4857590;29;20421;-75
2021/10/16 02:08:38;;;;;;;12.60;11.40;;;;;;;11.43;79.94;100787.34;4838600;29;20414;-75
2021/10/16 02:11:04;;;;;;;11.57;10.38;;;;;;;11.43;80.09;100784.66;4856779;29;20497;-75
2021/10/16 02:13:29;;;;;;;17.87;14.10;;;;;;;11.41;80.28;100779.47;4857108;29;20502;-76
2021/10/16 02:15:54;;;;;;;16.83;14.57;;;;;;;11.40;80.30;100769.69;4857386;29;20888;-75
2021/10/16 02:18:20;;;;;;;17.77;15.60;;;;;;;11.40;80.29;100768.84;4857258;29;20454;-76
2021/10/16 02:20:45;;;;;;;20.07;17.33;;;;;;;11.39;80.45;100767.22;4839962;29;20466;-76
2021/10/16 02:23:10;;;;;;;21.17;18.20;;;;;;;11.38;80.49;100765.56;4857203;29;20420;-75
2021/10/16 02:25:35;;;;;;;20.70;18.50;;;;;;;11.36;80.63;100770.44;4840206;29;20425;-76
2021/10/16 02:28:01;;;;;;;21.70;18.77;;;;;;;11.32;80.72;100770.09;4840179;29;20931;-75
2021/10/16 02:30:26;;;;;;;20.20;18.00;;;;;;;11.29;80.80;100773.28;4841063;29;20478;-75
2021/10/16 02:32:52;;;;;;;20.87;18.70;;;;;;;11.27;80.92;100772.69;4861901;29;20493;-75
2021/10/16 02:35:17;;;;;;;23.67;19.03;;;;;;;11.25;80.98;100769.41;4844023;29;20883;-76
2021/10/16 02:37:42;;;;;;;23.77;19.03;;;;;;;11.23;81.00;100768.78;4858251;29;20430;-75
2021/10/16 02:40:08;;;;;;;22.77;19.07;;;;;;;11.19;81.18;100773.09;4860260;29;20970;-75
2021/10/16 02:42:33;;;;;;;22.55;18.60;;;;;;;11.19;80.91;100773.09;4860637;29;20489;-75
2021/10/16 02:44:59;;;;;;;21.87;17.87;;;;;;;11.19;80.77;100767.66;4860046;29;20933;-75
2021/10/16 02:47:30;;;;;;;20.43;18.23;;;;;;;11.18;80.44;100776.03;4858478;29;20434;-75
2021/10/16 02:49:56;;;;;;;24.10;19.95;;;;;;;11.15;80.99;100771.06;4842567;29;20425;-75
2021/10/16 02:52:21;;;;;;;20.30;18.17;;;;;;;11.13;81.17;100768.59;4860933;29;20414;-75
2021/10/16 02:54:48;;;;;;;20.70;18.58;;;;;;;11.15;81.14;100773.78;4844546;29;22513;-76
2021/10/16 02:57:13;;;;;;;21.23;19.03;;;;;;;11.15;81.19;100777.34;4845053;29;20538;-77
2021/10/16 02:59:38;;;;;;;21.47;18.93;;;;;;;11.16;81.18;100775.44;4861560;29;20476;-75
2021/10/16 03:02:04;;;;;;;23.93;19.90;;;;;;;11.17;81.34;100782.50;4861584;29;20421;-75
2021/10/16 03:04:29;;;;;;;22.90;19.83;;;;;;;11.17;81.32;100777.91;4861863;29;20410;-75
2021/10/16 03:06:54;;;;;;;25.00;20.77;;;;;;;11.15;81.42;100777.34;4860816;29;20886;-75
2021/10/16 03:09:19;;;;;;;26.53;20.73;;;;;;;11.15;81.57;100785.47;4861497;29;20462;-75
2021/10/16 03:11:45;;;;;;;23.73;19.67;;;;;;;11.20;81.35;100790.16;4861526;29;20508;-75
2021/10/16 03:14:10;;;;;;;28.23;20.83;;;;;;;11.21;81.27;100784.50;4861497;29;20443;-75
2021/10/16 03:16:35;;;;;;;23.33;20.45;;;;;;;11.23;81.29;100785.06;4849501;29;20449;-75
2021/10/16 03:19:00;;;;;;;26.63;20.40;;;;;;;11.24;81.21;100789.44;4844824;29;20414;-75
2021/10/16 03:21:26;;;;;;;30.33;23.27;;;;;;;11.21;81.26;100789.09;4844641;29;20939;-75
2021/10/16 03:23:51;;;;;;;27.93;22.60;;;;;;;11.20;81.23;100784.72;4861334;29;20497;-75
2021/10/16 03:26:16;;;;;;;27.27;21.70;;;;;;;11.20;81.29;100792.88;4861267;29;20399;-75
2021/10/16 03:28:42;;;;;;;26.30;21.63;;;;;;;11.20;81.34;100793.69;4861154;29;20418;-75
2021/10/16 03:31:07;;;;;;;28.40;23.13;;;;;;;11.20;81.26;100787.44;4861092;29;20438;-76
2021/10/16 03:33:32;;;;;;;26.53;22.63;;;;;;;11.19;81.40;100789.34;4860959;29;20441;-75
2021/10/16 03:35:58;;;;;;;28.37;23.17;;;;;;;11.18;81.31;100792.28;4861167;29;20411;-75
2021/10/16 03:38:23;;;;;;;25.40;22.07;;;;;;;11.16;81.35;100787.13;4857893;29;20536;-75
2021/10/16 03:40:48;;;;;;;29.47;23.23;;;;;;;11.20;81.04;100787.44;4842638;29;20422;-76
2021/10/16 03:43:13;;;;;;;28.37;23.50;;;;;;;11.11;81.42;100789.72;4859017;29;20426;-75
2021/10/16 03:45:39;;;;;;;28.63;23.83;;;;;;;11.08;81.48;100789.38;4843477;29;20525;-75
2021/10/16 03:48:04;;;;;;;35.17;23.60;;;;;;;11.06;81.44;100791.50;4860917;29;20513;-75
2021/10/16 03:50:30;;;;;;;31.50;24.33;;;;;;;11.03;81.50;100787.38;4860538;29;20425;-75
2021/10/16 03:52:55;;;;;;;27.75;23.30;;;;;;;11.00;81.56;100779.72;4859004;29;20414;-76
2021/10/16 03:55:20;;;;;;;31.77;25.03;;;;;;;11.03;81.63;100787.38;4844119;29;20398;-75
2021/10/16 03:57:46;;;;;;;28.40;23.77;;;;;;;11.02;81.34;100779.50;4844032;29;20505;-75
2021/10/16 04:00:16;;;;;;;31.50;24.50;;;;;;;11.05;81.36;100779.84;4860654;29;20886;-75
2021/10/16 04:02:46;;;;;;;30.60;24.00;;;;;;;11.04;81.26;100775.47;4855143;29;20430;-75
2021/10/16 04:05:11;;;;;;;30.40;23.93;;;;;;;11.03;81.27;100781.16;4858862;29;20639;-75
2021/10/16 04:07:36;;;;;;;30.20;22.93;;;;;;;11.01;81.45;100775.13;4839336;29;20513;-75
2021/10/16 04:10:02;;;;;;;27.27;23.27;;;;;;;10.98;81.43;100781.84;4858623;29;20949;-75
2021/10/16 04:12:27;;;;;;;29.33;22.67;;;;;;;10.99;81.28;100780.81;4859487;29;20414;-75
2021/10/16 04:14:52;;;;;;;31.47;24.57;;;;;;;10.98;81.34;100779.16;4843058;29;20769;-76
2021/10/16 04:17:18;;;;;;;31.77;23.63;;;;;;;10.97;81.36;100772.06;4850703;29;20767;-75
2021/10/16 04:19:43;;;;;;;30.33;23.43;;;;;;;10.99;81.40;100780.81;4860159;29;20581;-75
2021/10/16 04:22:08;;;;;;;28.73;23.77;;;;;;;10.97;81.34;100780.19;4860208;29;20410;-75
2021/10/16 04:24:34;;;;;;;34.45;25.17;;;;;;;10.95;81.39;100785.06;4860056;29;20411;-75
2021/10/16 04:26:59;;;;;;;35.97;25.67;;;;;;;10.89;81.56;100776.00;4859207;29;20439;-75
2021/10/16 04:29:24;;;;;;;31.63;24.70;;;;;;;10.89;81.69;100780.59;4854475;29;20862;-75
2021/10/16 04:31:50;;;;;;;31.53;24.87;;;;;;;10.91;81.55;100773.84;4856495;29;20438;-75
2021/10/16 04:34:15;;;;;;;30.23;24.10;;;;;;;10.91;81.63;100773.03;4859075;29;20422;-75
2021/10/16 04:36:41;;;;;;;33.57;25.23;;;;;;;10.94;81.37;100775.25;4842064;29;20410;-75
2021/10/16 04:39:06;;;;;;;32.90;25.90;;;;;;;10.91;81.35;100779.28;4841630;29;20771;-75
2021/10/16 04:41:34;;;;;;;34.40;26.10;;;;;;;10.94;81.21;100776.09;4857862;29;20410;-75
2021/10/16 04:44:00;;;;;;;30.48;24.65;;;;;;;10.95;81.22;100774.19;4841311;29;20662;-76
2021/10/16 04:46:25;;;;;;;30.50;25.27;;;;;;;10.98;81.21;100779.16;4858116;29;20448;-75
2021/10/16 04:48:51;;;;;;;29.90;24.57;;;;;;;10.99;81.04;100778.09;4858145;29;20410;-76
2021/10/16 04:51:16;;;;;;;34.20;25.20;;;;;;;11.02;80.82;100771.34;4857994;29;20907;-75
2021/10/16 04:53:41;;;;;;;35.53;25.77;;;;;;;11.03;80.94;100779.22;4858341;29;20466;-76
2021/10/16 04:56:07;;;;;;;33.97;25.50;;;;;;;10.98;80.94;100772.91;4859222;29;20497;-75
2021/10/16 04:58:32;;;;;;;35.03;25.77;;;;;;;10.94;80.96;100781.50;4839443;29;20449;-75
2021/10/16 05:00:58;;;;;;;31.10;25.13;;;;;;;10.96;81.18;100781.28;4853174;29;20410;-75
2021/10/16 05:03:23;;;;;;;30.90;25.30;;;;;;;10.97;81.07;100784.78;4859281;29;20756;-75
2021/10/16 05:05:49;;;;;;;32.90;25.60;;;;;;;10.97;80.93;100782.91;4842396;29;20398;-75
2021/10/16 05:08:14;;;;;;;31.45;24.98;;;;;;;10.97;80.90;100788.34;4859585;29;20509;-75
2021/10/16 05:10:40;;;;;;;32.20;24.97;;;;;;;10.98;81.17;100792.72;4842502;29;20943;-75
2021/10/16 05:13:05;;;;;;;28.13;23.90;;;;;;;11.02;81.06;100804.72;4859452;29;20493;-75
2021/10/16 05:15:31;;;;;;;33.03;24.33;;;;;;;11.00;81.02;100801.41;4858855;29;20465;-75
2021/10/16 05:17:56;;;;;;;30.43;23.53;;;;;;;10.93;81.07;100795.31;4842572;29;20505;-75
2021/10/16 05:20:21;;;;;;;34.03;25.10;;;;;;;10.88;81.28;100787.91;4846543;29;20411;-75
2021/10/16 05:22:47;;;;;;;33.93;23.83;;;;;;;10.83;81.23;100792.41;4857072;29;20760;-76
2021/10/16 05:25:13;;;;;;;30.73;23.57;;;;;;;10.83;81.49;100795.09;4859095;29;20827;-75
2021/10/16 05:27:38;;;;;;;36.50;24.97;;;;;;;10.82;81.47;100793.44;4857115;29;20453;-75
2021/10/16 05:30:05;;;;;;;36.53;25.77;;;;;;;10.81;81.33;100792.63;4856942;29;20456;-75
2021/10/16 05:32:31;;;;;;;34.85;24.77;;;;;;;10.83;81.17;100792.41;4841618;29;20945;-75
2021/10/16 05:34:56;;;;;;;35.53;24.37;;;;;;;10.83;81.21;100795.91;4842468;29;20454;-75
2021/10/16 05:37:21;;;;;;;33.80;23.77;;;;;;;10.79;81.66;100804.75;4859103;29;20473;-75
2021/10/16 05:39:46;;;;;;;34.90;24.83;;;;;;;10.80;81.39;100801.81;4841616;29;20775;-75
2021/10/16 05:42:12;;;;;;;35.70;25.57;;;;;;;10.79;81.42;100804.75;4857662;29;20418;-75
2021/10/16 05:44:37;;;;;;;33.37;25.23;;;;;;;10.77;81.62;100802.28;4856905;29;20441;-75
2021/10/16 05:47:02;;;;;;;35.27;25.53;;;;;;;10.77;81.62;100813.13;4857837;29;20517;-75
2021/10/16 05:49:28;;;;;;;36.95;25.60;;;;;;;10.76;81.62;100810.66;4840170;29;20513;-75
2021/10/16 05:51:53;;;;;;;36.63;25.30;;;;;;;10.79;81.45;100811.03;4858052;29;20911;-76
2021/10/16 05:54:18;;;;;;;38.67;25.98;;;;;;;10.79;81.54;100812.91;4858950;29;20402;-76
2021/10/16 05:56:44;;;;;;;39.10;25.80;;;;;;;10.81;81.60;100821.59;4858749;29;20437;-75
2021/10/16 05:59:09;;;;;;;40.55;25.95;;;;;;;10.81;81.41;100821.59;4858456;29;20418;-75
2021/10/16 06:01:35;;;;;;;34.67;24.80;;;;;;;10.82;81.29;100817.84;4858433;29;20418;-75
2021/10/16 06:04:00;;;;;;;38.33;26.47;;;;;;;10.79;81.44;100819.16;4858781;29;20913;-75
2021/10/16 06:06:25;;;;;;;42.80;26.80;;;;;;;10.75;81.37;100822.56;4861602;29;20402;-75
2021/10/16 06:08:50;;;;;;;35.83;25.83;;;;;;;10.73;81.58;100830.94;4860524;29;20437;-75
2021/10/16 06:11:16;;;;;;;42.35;26.88;;;;;;;10.72;81.69;100831.16;4845547;29;20433;-75
2021/10/16 06:13:41;;;;;;;38.67;26.47;;;;;;;10.74;81.56;100831.75;4862532;29;20767;-76
2021/10/16 06:16:06;;;;;;;42.00;26.13;;;;;;;10.74;81.59;100829.88;4862360;29;20506;-75
2021/10/16 06:18:32;;;;;;;39.93;26.03;;;;;;;10.74;81.62;100835.28;4848759;29;20418;-75
2021/10/16 06:20:58;;;;;;;42.20;26.25;;;;;;;10.74;81.75;100840.72;4859501;29;20422;-75
2021/10/16 06:23:23;;;;;;;41.17;26.77;;;;;;;10.77;81.58;100836.69;4862113;29;20398;-75
2021/10/16 06:25:48;;;;;;;44.30;27.40;;;;;;;10.79;81.51;100845.44;4862089;29;20909;-75
2021/10/16 06:28:14;;;;;;;40.80;26.73;;;;;;;10.83;81.50;100849.31;4862194;29;20418;-76
2021/10/16 06:30:45;;;;;;;45.15;27.33;;;;;;;10.84;81.28;100849.06;4862148;29;20512;-75
2021/10/16 06:33:10;;;;;;;43.97;26.73;;;;;;;10.84;81.28;100853.66;4861554;29;20415;-75
2021/10/16 06:35:37;;;;;;;43.40;26.77;;;;;;;10.84;81.43;100854.50;4861207;29;20910;-75
2021/10/16 06:38:03;;;;;;;39.22;25.80;;;;;;;10.84;81.20;100849.06;4861476;29;20419;-75
2021/10/16 06:40:29;;;;;;;41.60;27.45;;;;;;;10.86;80.92;100856.97;4861078;29;20481;-75
2021/10/16 06:42:54;;;;;;;43.22;27.55;;;;;;;10.85;80.98;100853.44;4858962;29;20529;-75
2021/10/16 06:45:20;;;;;;;44.50;27.37;;;;;;;10.83;81.42;100857.47;4861499;29;20993;-75
2021/10/16 06:47:45;;;;;;;44.63;27.43;;;;;;;10.81;81.35;100868.53;4859887;29;20462;-75
2021/10/16 06:50:10;;;;;;;47.43;27.03;;;;;;;10.79;81.48;100864.41;4844573;29;20763;-75
2021/10/16 06:52:36;;;;;;;44.43;27.03;;;;;;;10.78;81.60;100871.72;4858952;29;20474;-76
2021/10/16 06:55:01;;;;;;;45.93;27.53;;;;;;;10.76;81.63;100871.13;4844808;29;20902;-75
2021/10/16 06:57:26;;;;;;;46.20;27.60;;;;;;;10.77;81.81;100880.06;4858424;29;20442;-76
2021/10/16 06:59:51;;;;;;;43.43;27.40;;;;;;;10.77;81.63;100880.91;4861028;29;20462;-75
2021/10/16 07:02:18;;;;;;;49.27;28.07;;;;;;;10.78;81.64;100862.75;4861262;29;20426;-75
2021/10/16 07:04:43;;;;;;;40.78;26.90;;;;;;;10.81;81.50;100871.25;4860425;29;20430;-75
2021/10/16 07:07:08;;;;;;;39.78;26.27;;;;;;;10.82;81.26;100866.66;4843207;29;20493;-75
2021/10/16 07:09:34;;;;;;;41.37;27.33;;;;;;;10.81;81.42;100875.84;4860729;29;20807;-75
2021/10/16 07:11:59;;;;;;;43.42;27.40;;;;;;;10.79;81.69;100875.25;4860411;29;20532;-75
2021/10/16 07:14:24;;;;;;;39.90;26.80;;;;;;;10.82;81.27;100875.59;4861118;29;20557;-76
2021/10/16 07:16:50;;;;;;;41.50;27.52;;;;;;;10.85;81.37;100875.13;4860466;29;20501;-76
2021/10/16 07:19:15;;;;;;;40.57;25.50;;;;;;;10.88;81.45;100877.38;4860919;29;20406;-75
2021/10/16 07:21:40;;;;;;;48.28;27.63;;;;;;;10.89;81.39;100881.75;4861083;29;20415;-76
2021/10/16 07:24:06;;;;;;;47.90;28.70;;;;;;;10.93;81.04;100885.59;4856452;29;20438;-75
2021/10/16 07:26:31;;;;;;;43.83;27.57;;;;;;;10.94;81.31;100892.69;4860072;29;20489;-75
2021/10/16 07:28:57;;;;;;;44.50;29.13;;;;;;;10.97;81.11;100885.13;4841222;29;20949;-75
2021/10/16 07:31:24;;;;;;;43.90;28.93;;;;;;;11.00;81.07;100893.63;4858679;29;20434;-75
2021/10/16 07:33:51;;;;;;;48.83;29.33;;;;;;;11.01;80.87;100892.56;4859151;29;20422;-75
2021/10/16 07:36:16;;;;;;;45.28;28.73;;;;;;;11.01;80.93;100898.00;4857132;29;20424;-75
2021/10/16 07:38:41;;;;;;;45.83;27.87;;;;;;;11.02;80.77;100910.50;4860094;29;20414;-75
2021/10/16 07:41:07;;;;;;;47.85;28.73;;;;;;;11.00;80.90;100909.09;4842024;29;20426;-75
2021/10/16 07:43:32;;;;;;;52.97;29.73;;;;;;;10.96;80.96;100911.44;4864539;29;20398;-74
2021/10/16 07:45:57;;;;;;;50.42;28.70;;;;;;;10.94;81.30;100916.25;4859355;29;20448;-74
2021/10/16 07:48:22;;;;;;;48.67;29.90;;;;;;;10.96;81.15;100925.00;4859398;29;20827;-74
2021/10/16 07:50:48;;;;;;;50.90;28.37;;;;;;;11.01;80.96;100918.84;4841613;29;20430;-75
2021/10/16 07:53:13;;;;;;;51.07;27.97;;;;;;;11.06;80.98;100922.53;4859639;29;20423;-75
2021/10/16 07:55:38;;;;;;;52.90;28.03;;;;;;;11.12;80.72;100928.88;4861551;29;20759;-75
2021/10/16 07:58:04;;;;;;;56.93;29.73;;;;;;;11.14;80.78;100927.56;4841009;29;20422;-75
2021/10/16 08:00:29;;;;;;;55.20;28.93;;;;;;;11.13;80.86;100928.63;4860262;29;20461;-76
2021/10/16 08:02:54;;;;;;;55.33;29.63;;;;;;;11.12;80.87;100927.00;4858316;29;20464;-75
2021/10/16 08:05:20;;;;;;;57.30;28.53;;;;;;;11.13;80.70;100928.63;4859052;29;20524;-75
2021/10/16 08:07:45;;;;;;;57.10;29.20;;;;;;;11.15;80.58;100929.25;4840738;29;20429;-75
2021/10/16 08:10:11;;;;;;;53.30;27.57;;;;;;;11.18;80.52;100928.75;4842698;29;20774;-75
2021/10/16 08:12:38;;;;;;;56.15;29.35;;;;;;;11.21;80.66;100930.16;4858584;29;20918;-75
2021/10/16 08:15:05;;;;;;;50.10;27.92;;;;;;;11.26;80.49;100941.16;4856649;29;20541;-74
2021/10/16 08:17:30;;;;;;;50.20;27.90;;;;;;;11.33;79.81;100933.69;4858190;29;20414;-75
2021/10/16 08:19:55;;;;;;;50.43;28.53;;;;;;;11.37;79.84;100927.56;4853925;29;20425;-76
2021/10/16 08:22:21;;;;;;;52.05;28.45;;;;;;;11.41;79.60;100926.03;4853788;29;20422;-76
2021/10/16 08:24:47;;;;;;;45.97;27.60;;;;;;;11.48;79.39;100933.19;4857488;29;20425;-76
2021/10/16 08:27:12;;;;;;;45.07;26.13;;;;;;;11.56;79.29;100924.69;4853994;29;20430;-76
2021/10/16 08:29:38;;;;;;;40.63;25.63;;;;;;;11.59;78.89;100932.34;4857138;29;20414;-76
2021/10/16 08:32:04;;;;;;;38.03;25.50;;;;;;;11.66;78.67;100936.56;4857856;29;20442;-75
2021/10/16 08:34:30;;;;;;;31.33;22.93;;;;;;;11.70;77.89;100932.34;4857502;29;20535;-75
2021/10/16 08:36:55;;;;;;;34.80;23.37;;;;;;;11.68;78.15;100931.75;4856103;29;20454;-76
2021/10/16 08:39:23;;;;;;;38.10;23.33;;;;;;;11.72;77.56;100929.41;4859692;29;20513;-76
2021/10/16 08:41:48;;;;;;;35.65;23.75;;;;;;;11.78;77.42;100933.88;4847900;29;20461;-75
2021/10/16 08:44:14;;;;;;;36.57;23.93;;;;;;;11.84;77.25;100936.44;4855820;29;20461;-76
2021/10/16 08:46:41;;;;;;;38.93;25.47;;;;;;;11.84;77.21;100933.72;4851884;29;20426;-76
2021/10/16 08:49:09;;;;;;;41.95;25.90;;;;;;;11.83;77.27;100929.34;4853972;29;20459;-76
2021/10/16 08:51:34;;;;;;;41.70;25.02;;;;;;;11.88;77.52;100929.47;4852538;29;20434;-75
2021/10/16 08:53:59;;;;;;;40.80;25.90;;;;;;;11.97;77.13;100929.91;4839268;29;20478;-75
2021/10/16 08:56:25;;;;;;;54.23;26.97;;;;;;;12.02;76.91;100929.97;4857342;29;20427;-76
2021/10/16 08:58:51;;;;;;;39.03;25.07;;;;;;;12.04;76.85;100927.03;4859350;29;20452;-76
2021/10/16 09:01:16;;;;;;;38.13;25.67;;;;;;;12.09;76.55;100936.09;4861097;29;20411;-76
2021/10/16 09:03:46;;;;;;;35.93;24.53;;;;;;;12.11;76.69;100936.69;4856749;29;20820;-76
2021/10/16 09:06:26;;;;;;;38.85;24.73;;;;;;;12.11;76.39;100933.16;4839407;29;20434;-75
2021/10/16 09:08:58;;;;;;;37.22;24.15;;;;;;;12.07;76.21;100940.13;4857662;29;20423;-75
2021/10/16 09:11:32;;;;;;;34.33;23.97;;;;;;;12.04;76.20;100936.00;4839456;29;20794;-75
2021/10/16 09:14:00;;;;;;;35.83;22.65;;;;;;;12.04;76.07;100929.75;4866825;29;20415;-75
2021/10/16 09:16:32;;;;;;;35.60;23.25;;;;;;;12.02;76.40;100929.97;4848389;29;20426;-75
2021/10/16 09:19:03;;;;;;;35.17;23.65;;;;;;;12.09;76.24;100935.25;4829105;29;20430;-75
2021/10/16 09:21:31;;;;;;;32.58;22.30;;;;;;;12.13;76.23;100931.81;4856641;29;20482;-75
2021/10/16 09:24:11;;;;;;;32.83;21.67;;;;;;;12.16;75.75;100928.63;4858651;29;20422;-75
2021/10/16 09:26:39;;;;;;;33.38;22.15;;;;;;;12.23;75.82;100931.19;4855356;29;20422;-75
2021/10/16 09:29:06;;;;;;;35.17;22.80;;;;;;;12.29;75.50;100932.91;4841958;29;20551;-76
2021/10/16 09:31:39;;;;;;;32.50;22.85;;;;;;;12.29;75.21;100936.47;4856100;29;20434;-75
2021/10/16 09:34:05;;;;;;;30.80;21.30;;;;;;;12.27;75.26;100932.34;4857277;29;20430;-75
2021/10/16 09:36:31;;;;;;;29.70;21.77;;;;;;;12.31;74.74;100930.81;4858789;29;20428;-75
2021/10/16 09:38:57;;;;;;;29.35;21.00;;;;;;;12.33;74.68;100931.38;4857686;29;20899;-75
2021/10/16 09:41:24;;;;;;;32.75;22.35;;;;;;;12.36;74.94;100929.00;4856199;29;20414;-74
2021/10/16 09:43:49;;;;;;;32.23;21.23;;;;;;;12.44;75.03;100925.88;4853566;29;20416;-74
2021/10/16 09:46:17;;;;;;;34.03;21.73;;;;;;;12.49;74.52;100925.13;4856750;29;20475;-74
2021/10/16 09:48:45;;;;;;;33.35;22.70;;;;;;;12.46;74.67;100926.44;4856844;29;20463;-74
2021/10/16 09:51:11;;;;;;;32.90;22.70;;;;;;;12.43;74.41;100918.78;4856483;29;20441;-74
2021/10/16 09:53:36;;;;;;;34.33;22.87;;;;;;;12.40;74.78;100923.88;4855699;29;20429;-74
2021/10/16 09:56:02;;;;;;;34.73;23.27;;;;;;;12.40;75.13;100929.31;4857973;29;20985;-75
2021/10/16 09:58:29;;;;;;;37.67;22.75;;;;;;;12.47;74.77;100930.00;4854334;29;20764;-74
2021/10/16 10:00:54;;;;;;;33.42;21.98;;;;;;;12.46;74.76;100926.44;4839426;29;20476;-74
2021/10/16 10:03:26;;;;;;;32.73;22.33;;;;;;;12.43;74.90;100923.41;4840677;29;20934;-75
2021/10/16 10:05:52;;;;;;;33.08;22.92;;;;;;;12.39;75.17;100923.06;4856852;29;20527;-75
2021/10/16 10:08:19;;;;;;;32.92;22.77;;;;;;;12.39;75.20;100925.78;4843853;29;20431;-74
2021/10/16 10:10:46;;;;;;;32.92;22.40;;;;;;;12.37;75.18;100919.78;4824021;29;21102;-75
2021/10/16 10:13:13;;;;;;;31.08;21.35;;;;;;;12.39;74.91;100914.91;4852681;29;20783;-74
2021/10/16 10:15:38;;;;;;;34.95;22.98;;;;;;;12.47;74.50;100916.41;4851168;29;20774;-74
2021/10/16 10:20:53;;;;;;;31.73;21.30;;;;;;;12.57;74.38;100916.56;4854413;29;20490;-75
2021/10/16 10:23:20;;;;;;;31.63;21.27;;;;;;;12.62;74.32;100915.81;4857305;29;20926;-74
2021/10/16 10:25:45;;;;;;;30.55;21.17;;;;;;;12.68;74.33;100918.38;4857055;29;20520;-75
2021/10/16 10:28:11;;;;;;;29.90;20.70;;;;;;;12.72;74.32;100914.09;4855801;29;20505;-75
2021/10/16 10:30:36;;;;;;;30.73;21.40;;;;;;;12.74;74.16;100922.00;4856733;29;20457;-75
2021/10/16 10:33:16;;;;;;;31.63;21.90;;;;;;;12.75;74.13;100919.03;4854767;29;20440;-75
2021/10/16 10:36:00;;;;;;;30.07;21.80;;;;;;;12.78;73.99;100921.25;4850332;29;20910;-75
2021/10/16 10:38:33;;;;;;;30.10;20.77;;;;;;;12.78;74.23;100928.59;4855271;29;20437;-74
2021/10/16 10:40:58;;;;;;;30.88;21.10;;;;;;;12.77;74.25;100916.06;4860810;29;20863;-75
2021/10/16 10:43:37;;;;;;;33.45;21.70;;;;;;;12.76;74.04;100915.25;4859999;29;20506;-75
2021/10/16 10:46:13;;;;;;;30.02;21.02;;;;;;;12.74;74.31;100919.28;4854662;29;20875;-75
2021/10/16 10:48:43;;;;;;;32.35;22.15;;;;;;;12.77;74.28;100919.63;4848083;29;20433;-76
2021/10/16 10:51:09;;;;;;;42.63;22.23;;;;;;;12.79;73.98;100913.91;4857554;29;20491;-75
2021/10/16 10:53:37;;;;;;;32.05;22.95;;;;;;;12.78;73.78;100910.38;4860007;29;20851;-75
2021/10/16 10:56:14;;;;;;;34.40;23.37;;;;;;;12.71;73.67;100898.03;4840848;29;20563;-74
2021/10/16 10:58:58;;;;;;;31.00;22.13;;;;;;;12.73;73.95;100902.16;4868317;29;20418;-75
2021/10/16 11:01:45;;;;;;;29.77;22.92;;;;;;;12.82;73.10;100897.94;4860646;29;20414;-75
2021/10/16 11:04:31;;;;;;;31.63;22.95;;;;;;;12.85;73.30;100894.72;4860815;29;21101;-75
2021/10/16 11:07:02;;;;;;;30.98;22.58;;;;;;;12.91;73.11;100893.72;4860377;29;20441;-75
2021/10/16 11:09:27;;;;;;;33.55;24.35;;;;;;;12.99;72.85;100889.75;4858048;29;20435;-75
2021/10/16 11:11:52;;;;;;;32.50;23.87;;;;;;;13.06;72.77;100884.13;4857822;29;20442;-75